sensor_id;sensor_type;location;lat;lon;timestamp;pressure;altitude;pressure_sealevel;temperature;humidity
76311;BME280;76681;59.304;18.294;2024-03-22T00:01:56;101138.53;;;2.48;76.04
76311;BME280;76681;59.304;18.294;2024-03-22T00:04:22;101138.53;;;2.50;75.87
76311;BME280;76681;59.304;18.294;2024-03-22T00:06:49;101142.03;;;2.52;76.04
76311;BME280;76681;59.304;18.294;2024-03-22T00:09:15;101128.25;;;2.53;75.98
76311;BME280;76681;59.304;18.294;2024-03-22T00:11:43;101122.28;;;2.54;76.08
76311;BME280;76681;59.304;18.294;2024-03-22T00:14:10;101110.19;;;2.53;75.92
76311;BME280;76681;59.304;18.294;2024-03-22T00:16:37;101111.94;;;2.55;75.92
76311;BME280;76681;59.304;18.294;2024-03-22T00:19:05;101110.25;;;2.56;76.23
76311;BME280;76681;59.304;18.294;2024-03-22T00:21:32;101112.88;;;2.59;75.82
76311;BME280;76681;59.304;18.294;2024-03-22T00:23:58;101104.28;;;2.60;76.09
76311;BME280;76681;59.304;18.294;2024-03-22T00:26:26;101099.13;;;2.60;76.11
76311;BME280;76681;59.304;18.294;2024-03-22T00:28:52;101094.81;;;2.60;76.28
76311;BME280;76681;59.304;18.294;2024-03-22T00:31:19;101091.41;;;2.62;76.06
76311;BME280;76681;59.304;18.294;2024-03-22T00:33:45;101089.69;;;2.62;75.87
76311;BME280;76681;59.304;18.294;2024-03-22T00:36:13;101077.63;;;2.64;76.21
76311;BME280;76681;59.304;18.294;2024-03-22T00:38:39;101076.81;;;2.65;76.29
76311;BME280;76681;59.304;18.294;2024-03-22T00:41:06;101067.34;;;2.66;76.15
76311;BME280;76681;59.304;18.294;2024-03-22T00:43:32;101069.06;;;2.67;76.21
76311;BME280;76681;59.304;18.294;2024-03-22T00:45:59;101066.47;;;2.67;76.29
76311;BME280;76681;59.304;18.294;2024-03-22T00:48:26;101063.06;;;2.68;76.30
76311;BME280;76681;59.304;18.294;2024-03-22T00:50:52;101058.75;;;2.68;76.02
76311;BME280;76681;59.304;18.294;2024-03-22T00:53:20;101057.09;;;2.70;76.35
76311;BME280;76681;59.304;18.294;2024-03-22T00:55:47;101045.84;;;2.68;76.33
76311;BME280;76681;59.304;18.294;2024-03-22T00:58:17;101052.78;;;2.72;76.20
76311;BME280;76681;59.304;18.294;2024-03-22T01:00:44;101046.78;;;2.73;76.36
76311;BME280;76681;59.304;18.294;2024-03-22T01:03:10;101040.75;;;2.74;76.22
76311;BME280;76681;59.304;18.294;2024-03-22T01:05:37;101035.59;;;2.74;75.83
76311;BME280;76681;59.304;18.294;2024-03-22T01:08:04;101019.22;;;2.75;76.27
76311;BME280;76681;59.304;18.294;2024-03-22T01:10:33;101013.22;;;2.76;76.29
76311;BME280;76681;59.304;18.294;2024-03-22T01:12:59;101001.19;;;2.77;76.26
76311;BME280;76681;59.304;18.294;2024-03-22T01:15:26;101002.91;;;2.78;76.24
76311;BME280;76681;59.304;18.294;2024-03-22T01:17:52;100989.16;;;2.79;76.20
76311;BME280;76681;59.304;18.294;2024-03-22T01:20:19;100995.19;;;2.81;76.15
76311;BME280;76681;59.304;18.294;2024-03-22T01:22:45;100990.91;;;2.81;76.28
76311;BME280;76681;59.304;18.294;2024-03-22T01:25:12;100982.31;;;2.82;76.06
76311;BME280;76681;59.304;18.294;2024-03-22T01:27:39;100984.03;;;2.83;76.59
76311;BME280;76681;59.304;18.294;2024-03-22T01:30:07;100978.84;;;2.83;76.23
76311;BME280;76681;59.304;18.294;2024-03-22T01:32:34;100967.69;;;2.85;76.27
76311;BME280;76681;59.304;18.294;2024-03-22T01:35:01;100968.56;;;2.87;76.32
76311;BME280;76681;59.304;18.294;2024-03-22T01:37:27;100959.97;;;2.88;76.32
76311;BME280;76681;59.304;18.294;2024-03-22T01:39:54;100959.97;;;2.88;76.47
76311;BME280;76681;59.304;18.294;2024-03-22T01:42:20;100961.69;;;2.89;76.28
76311;BME280;76681;59.304;18.294;2024-03-22T01:44:49;100952.22;;;2.89;76.46
76311;BME280;76681;59.304;18.294;2024-03-22T01:47:15;100940.16;;;2.90;76.25
76311;BME280;76681;59.304;18.294;2024-03-22T01:49:42;100929.00;;;2.91;76.34
76311;BME280;76681;59.304;18.294;2024-03-22T01:52:08;100922.06;;;2.90;76.52
76311;BME280;76681;59.304;18.294;2024-03-22T01:54:35;100913.50;;;2.91;76.51
76311;BME280;76681;59.304;18.294;2024-03-22T01:57:01;100905.75;;;2.91;76.65
76311;BME280;76681;59.304;18.294;2024-03-22T01:59:30;100904.88;;;2.92;76.40
76311;BME280;76681;59.304;18.294;2024-03-22T02:01:57;100887.66;;;2.92;76.52
76311;BME280;76681;59.304;18.294;2024-03-22T02:04:24;100885.06;;;2.92;76.29
76311;BME280;76681;59.304;18.294;2024-03-22T02:06:50;100884.22;;;2.93;76.37
76311;BME280;76681;59.304;18.294;2024-03-22T02:09:17;100880.78;;;2.93;76.35
76311;BME280;76681;59.304;18.294;2024-03-22T02:11:43;100882.50;;;2.94;76.42
76311;BME280;76681;59.304;18.294;2024-03-22T02:14:10;100872.16;;;2.94;76.54
76311;BME280;76681;59.304;18.294;2024-03-22T02:16:36;100871.31;;;2.93;76.48
76311;BME280;76681;59.304;18.294;2024-03-22T02:19:04;100865.28;;;2.93;76.49
76311;BME280;76681;59.304;18.294;2024-03-22T02:21:30;100862.69;;;2.93;76.43
76311;BME280;76681;59.304;18.294;2024-03-22T02:23:58;100859.25;;;2.94;76.58
76311;BME280;76681;59.304;18.294;2024-03-22T02:26:24;100849.78;;;2.93;76.31
76311;BME280;76681;59.304;18.294;2024-03-22T02:28:51;100839.44;;;2.93;76.44
76311;BME280;76681;59.304;18.294;2024-03-22T02:31:17;100842.00;;;2.94;76.63
76311;BME280;76681;59.304;18.294;2024-03-22T02:33:45;100830.81;;;2.94;76.53
76311;BME280;76681;59.304;18.294;2024-03-22T02:36:11;100833.41;;;2.94;76.46
76311;BME280;76681;59.304;18.294;2024-03-22T02:38:38;100830.81;;;2.94;76.62
76311;BME280;76681;59.304;18.294;2024-03-22T02:41:05;100822.19;;;2.95;76.51
76311;BME280;76681;59.304;18.294;2024-03-22T02:43:32;100829.94;;;2.95;76.43
76311;BME280;76681;59.304;18.294;2024-03-22T02:45:58;100810.13;;;2.94;76.46
76311;BME280;76681;59.304;18.294;2024-03-22T02:48:25;100806.69;;;2.95;76.42
76311;BME280;76681;59.304;18.294;2024-03-22T02:50:55;100800.66;;;2.94;76.61
76311;BME280;76681;59.304;18.294;2024-03-22T02:53:22;100800.66;;;2.94;76.32
76311;BME280;76681;59.304;18.294;2024-03-22T02:55:48;100792.91;;;2.94;76.50
76311;BME280;76681;59.304;18.294;2024-03-22T02:58:18;100786.88;;;2.94;76.38
76311;BME280;76681;59.304;18.294;2024-03-22T03:00:44;100786.03;;;2.93;76.43
76311;BME280;76681;59.304;18.294;2024-03-22T03:03:11;100786.03;;;2.93;76.58
76311;BME280;76681;59.304;18.294;2024-03-22T03:05:37;100781.72;;;2.94;76.50
76311;BME280;76681;59.304;18.294;2024-03-22T03:08:04;100773.97;;;2.94;76.35
76311;BME280;76681;59.304;18.294;2024-03-22T03:10:30;100764.50;;;2.93;76.53
76311;BME280;76681;59.304;18.294;2024-03-22T03:12:57;100756.72;;;2.94;76.48
76311;BME280;76681;59.304;18.294;2024-03-22T03:15:24;100745.53;;;2.94;76.42
76311;BME280;76681;59.304;18.294;2024-03-22T03:17:51;100747.25;;;2.95;76.51
76311;BME280;76681;59.304;18.294;2024-03-22T03:20:17;100738.66;;;2.96;76.56
76311;BME280;76681;59.304;18.294;2024-03-22T03:22:44;100728.31;;;2.94;76.39
76311;BME280;76681;59.304;18.294;2024-03-22T03:25:10;100725.75;;;2.96;76.37
76311;BME280;76681;59.304;18.294;2024-03-22T03:27:37;100732.59;;;2.95;76.45
76311;BME280;76681;59.304;18.294;2024-03-22T03:30:03;100726.56;;;2.95;76.50
76311;BME280;76681;59.304;18.294;2024-03-22T03:32:32;100731.78;;;2.96;76.59
76311;BME280;76681;59.304;18.294;2024-03-22T03:34:58;100731.75;;;2.95;76.42
76311;BME280;76681;59.304;18.294;2024-03-22T03:37:25;100724.84;;;2.95;76.42
76311;BME280;76681;59.304;18.294;2024-03-22T03:39:50;100730.03;;;2.95;76.53
76311;BME280;76681;59.304;18.294;2024-03-22T03:42:17;100730.91;;;2.96;76.51
76311;BME280;76681;59.304;18.294;2024-03-22T03:44:43;100715.41;;;2.96;76.48
76311;BME280;76681;59.304;18.294;2024-03-22T03:47:10;100705.91;;;2.95;76.52
76311;BME280;76681;59.304;18.294;2024-03-22T03:49:37;100700.72;;;2.95;76.68
76311;BME280;76681;59.304;18.294;2024-03-22T03:52:04;100698.16;;;2.95;76.68
76311;BME280;76681;59.304;18.294;2024-03-22T03:54:30;100692.13;;;2.94;76.69
76311;BME280;76681;59.304;18.294;2024-03-22T03:56:57;100677.47;;;2.95;76.61
76311;BME280;76681;59.304;18.294;2024-03-22T03:59:23;100666.28;;;2.94;76.55
76311;BME280;76681;59.304;18.294;2024-03-22T04:01:50;100654.22;;;2.93;76.78
76311;BME280;76681;59.304;18.294;2024-03-22T04:04:16;100666.28;;;2.93;76.78
76311;BME280;76681;59.304;18.294;2024-03-22T04:06:45;100670.59;;;2.94;76.89
76311;BME280;76681;59.304;18.294;2024-03-22T04:09:11;100665.41;;;2.94;76.92
76311;BME280;76681;59.304;18.294;2024-03-22T04:11:38;100659.38;;;2.95;77.12
76311;BME280;76681;59.304;18.294;2024-03-22T04:14:03;100647.31;;;2.95;76.91
76311;BME280;76681;59.304;18.294;2024-03-22T04:16:30;100628.38;;;2.93;76.92
76311;BME280;76681;59.304;18.294;2024-03-22T04:18:56;100622.38;;;2.96;77.08
76311;BME280;76681;59.304;18.294;2024-03-22T04:21:23;100613.75;;;2.97;77.33
76311;BME280;76681;59.304;18.294;2024-03-22T04:23:51;100609.44;;;2.97;76.87
76311;BME280;76681;59.304;18.294;2024-03-22T04:26:18;100614.59;;;2.97;76.84
76311;BME280;76681;59.304;18.294;2024-03-22T04:28:43;100603.41;;;2.97;76.82
76311;BME280;76681;59.304;18.294;2024-03-22T04:31:10;100593.06;;;2.97;76.89
76311;BME280;76681;59.304;18.294;2024-03-22T04:33:37;100588.78;;;2.99;76.88
76311;BME280;76681;59.304;18.294;2024-03-22T04:36:05;100586.19;;;2.96;77.01
76311;BME280;76681;59.304;18.294;2024-03-22T04:38:31;100586.19;;;2.96;76.88
76311;BME280;76681;59.304;18.294;2024-03-22T04:40:59;100584.44;;;2.98;76.86
76311;BME280;76681;59.304;18.294;2024-03-22T04:43:27;100587.91;;;2.97;77.11
76311;BME280;76681;59.304;18.294;2024-03-22T04:45:54;100587.03;;;2.98;77.21
76311;BME280;76681;59.304;18.294;2024-03-22T04:48:21;100564.66;;;2.97;77.16
76311;BME280;76681;59.304;18.294;2024-03-22T04:50:49;100568.94;;;2.98;77.35
76311;BME280;76681;59.304;18.294;2024-03-22T04:53:16;100563.78;;;2.98;77.29
76311;BME280;76681;59.304;18.294;2024-03-22T04:55:43;100548.28;;;2.98;77.30
76311;BME280;76681;59.304;18.294;2024-03-22T04:58:13;100551.75;;;3.00;77.37
76311;BME280;76681;59.304;18.294;2024-03-22T05:00:40;100539.69;;;2.99;77.29
76311;BME280;76681;59.304;18.294;2024-03-22T05:03:06;100530.19;;;2.99;77.22
76311;BME280;76681;59.304;18.294;2024-03-22T05:05:34;100529.34;;;3.00;77.51
76311;BME280;76681;59.304;18.294;2024-03-22T05:08:00;100536.22;;;3.00;77.34
76311;BME280;76681;59.304;18.294;2024-03-22T05:10:27;100526.75;;;3.00;77.23
76311;BME280;76681;59.304;18.294;2024-03-22T05:12:54;100522.44;;;3.01;77.47
76311;BME280;76681;59.304;18.294;2024-03-22T05:15:22;100531.06;;;3.00;77.56
76311;BME280;76681;59.304;18.294;2024-03-22T05:17:48;100524.19;;;3.02;77.62
76311;BME280;76681;59.304;18.294;2024-03-22T05:20:15;100512.09;;;3.01;77.88
76311;BME280;76681;59.304;18.294;2024-03-22T05:22:42;100513.84;;;3.02;77.92
76311;BME280;76681;59.304;18.294;2024-03-22T05:25:09;100518.16;;;3.01;77.73
76311;BME280;76681;59.304;18.294;2024-03-22T05:27:35;100509.53;;;3.02;77.80
76311;BME280;76681;59.304;18.294;2024-03-22T05:30:03;100500.06;;;3.03;77.92
76311;BME280;76681;59.304;18.294;2024-03-22T05:32:31;100478.50;;;3.04;77.89
76311;BME280;76681;59.304;18.294;2024-03-22T05:34:58;100475.94;;;3.04;77.87
76311;BME280;76681;59.304;18.294;2024-03-22T05:37:23;100468.16;;;3.04;77.83
76311;BME280;76681;59.304;18.294;2024-03-22T05:39:50;100462.16;;;3.05;78.01
76311;BME280;76681;59.304;18.294;2024-03-22T05:42:16;100470.75;;;3.04;77.75
76311;BME280;76681;59.304;18.294;2024-03-22T05:44:44;100463.03;;;3.05;77.88
76311;BME280;76681;59.304;18.294;2024-03-22T05:47:10;100449.22;;;3.06;77.85
76311;BME280;76681;59.304;18.294;2024-03-22T05:49:38;100446.66;;;3.08;77.79
76311;BME280;76681;59.304;18.294;2024-03-22T05:52:04;100448.38;;;3.09;77.80
76311;BME280;76681;59.304;18.294;2024-03-22T05:54:31;100455.28;;;3.10;77.88
76311;BME280;76681;59.304;18.294;2024-03-22T05:56:57;100455.28;;;3.12;77.89
76311;BME280;76681;59.304;18.294;2024-03-22T05:59:24;100447.53;;;3.12;78.08
76311;BME280;76681;59.304;18.294;2024-03-22T06:01:50;100450.97;;;3.12;77.92
76311;BME280;76681;59.304;18.294;2024-03-22T06:04:16;100446.69;;;3.13;78.02
76311;BME280;76681;59.304;18.294;2024-03-22T06:06:44;100449.28;;;3.13;78.09
76311;BME280;76681;59.304;18.294;2024-03-22T06:09:11;100436.34;;;3.14;78.11
76311;BME280;76681;59.304;18.294;2024-03-22T06:11:38;100437.19;;;3.15;78.16
76311;BME280;76681;59.304;18.294;2024-03-22T06:14:09;100426.00;;;3.16;78.30
76311;BME280;76681;59.304;18.294;2024-03-22T06:16:35;100408.78;;;3.16;78.12
76311;BME280;76681;59.304;18.294;2024-03-22T06:19:04;100402.72;;;3.17;78.23
76311;BME280;76681;59.304;18.294;2024-03-22T06:21:30;100399.28;;;3.17;78.18
76311;BME280;76681;59.304;18.294;2024-03-22T06:23:58;100406.19;;;3.19;78.22
76311;BME280;76681;59.304;18.294;2024-03-22T06:26:24;100393.25;;;3.19;78.30
76311;BME280;76681;59.304;18.294;2024-03-22T06:28:51;100396.72;;;3.20;78.24
76311;BME280;76681;59.304;18.294;2024-03-22T06:31:17;100385.50;;;3.22;78.40
76311;BME280;76681;59.304;18.294;2024-03-22T06:33:44;100375.16;;;3.24;78.59
76311;BME280;76681;59.304;18.294;2024-03-22T06:36:09;100376.91;;;3.25;78.36
76311;BME280;76681;59.304;18.294;2024-03-22T06:38:36;100362.25;;;3.25;78.30
76311;BME280;76681;59.304;18.294;2024-03-22T06:41:05;100360.53;;;3.27;78.44
76311;BME280;76681;59.304;18.294;2024-03-22T06:43:32;100354.50;;;3.27;78.34
76311;BME280;76681;59.304;18.294;2024-03-22T06:45:57;100344.16;;;3.27;78.14
76311;BME280;76681;59.304;18.294;2024-03-22T06:48:24;100334.69;;;3.27;78.04
76311;BME280;76681;59.304;18.294;2024-03-22T06:50:50;100351.91;;;3.30;78.25
76311;BME280;76681;59.304;18.294;2024-03-22T06:53:17;100339.84;;;3.31;78.31
76311;BME280;76681;59.304;18.294;2024-03-22T06:55:43;100351.06;;;3.33;78.42
76311;BME280;76681;59.304;18.294;2024-03-22T06:58:11;100331.22;;;3.35;78.47
76311;BME280;76681;59.304;18.294;2024-03-22T07:00:37;100320.03;;;3.36;78.33
76311;BME280;76681;59.304;18.294;2024-03-22T07:03:05;100324.31;;;3.35;78.41
76311;BME280;76681;59.304;18.294;2024-03-22T07:05:31;100319.16;;;3.37;78.41
76311;BME280;76681;59.304;18.294;2024-03-22T07:07:58;100298.47;;;3.37;78.24
76311;BME280;76681;59.304;18.294;2024-03-22T07:10:24;100314.84;;;3.40;78.61
76311;BME280;76681;59.304;18.294;2024-03-22T07:12:54;100295.88;;;3.41;78.21
76311;BME280;76681;59.304;18.294;2024-03-22T07:15:21;100303.63;;;3.43;78.58
76311;BME280;76681;59.304;18.294;2024-03-22T07:17:48;100289.81;;;3.44;78.52
76311;BME280;76681;59.304;18.294;2024-03-22T07:20:14;100296.75;;;3.45;78.70
76311;BME280;76681;59.304;18.294;2024-03-22T07:22:41;100293.28;;;3.49;78.31
76311;BME280;76681;59.304;18.294;2024-03-22T07:25:11;100277.75;;;3.49;78.73
76311;BME280;76681;59.304;18.294;2024-03-22T07:27:38;100277.75;;;3.50;78.50
76311;BME280;76681;59.304;18.294;2024-03-22T07:30:06;100285.50;;;3.52;78.41
76311;BME280;76681;59.304;18.294;2024-03-22T07:32:35;100282.06;;;3.53;78.40
76311;BME280;76681;59.304;18.294;2024-03-22T07:35:01;100269.13;;;3.53;78.43
76311;BME280;76681;59.304;18.294;2024-03-22T07:37:28;100266.53;;;3.55;78.64
76311;BME280;76681;59.304;18.294;2024-03-22T07:39:54;100263.09;;;3.57;78.54
76311;BME280;76681;59.304;18.294;2024-03-22T07:42:21;100257.91;;;3.57;78.64
76311;BME280;76681;59.304;18.294;2024-03-22T07:44:47;100260.47;;;3.60;78.67
76311;BME280;76681;59.304;18.294;2024-03-22T07:47:14;100253.59;;;3.62;78.66
76311;BME280;76681;59.304;18.294;2024-03-22T07:49:41;100257.03;;;3.64;78.67
76311;BME280;76681;59.304;18.294;2024-03-22T07:52:08;100255.28;;;3.66;78.63
76311;BME280;76681;59.304;18.294;2024-03-22T07:54:34;100262.22;;;3.67;78.79
76311;BME280;76681;59.304;18.294;2024-03-22T07:57:01;100254.44;;;3.69;78.79
76311;BME280;76681;59.304;18.294;2024-03-22T07:59:28;100243.22;;;3.70;78.80
76311;BME280;76681;59.304;18.294;2024-03-22T08:01:55;100247.53;;;3.72;78.74
76311;BME280;76681;59.304;18.294;2024-03-22T08:04:20;100233.69;;;3.75;78.69
76311;BME280;76681;59.304;18.294;2024-03-22T08:06:50;100238.03;;;3.76;78.68
76311;BME280;76681;59.304;18.294;2024-03-22T08:09:16;100231.13;;;3.77;78.33
76311;BME280;76681;59.304;18.294;2024-03-22T08:11:43;100212.16;;;3.74;78.80
76311;BME280;76681;59.304;18.294;2024-03-22T08:14:09;100209.56;;;3.79;78.64
76311;BME280;76681;59.304;18.294;2024-03-22T08:16:36;100221.63;;;3.82;78.57
76311;BME280;76681;59.304;18.294;2024-03-22T08:19:02;100210.41;;;3.83;78.87
76311;BME280;76681;59.304;18.294;2024-03-22T08:21:29;100218.16;;;3.84;78.74
76311;BME280;76681;59.304;18.294;2024-03-22T08:23:56;100210.38;;;3.86;78.91
76311;BME280;76681;59.304;18.294;2024-03-22T08:26:23;100192.28;;;3.87;78.87
76311;BME280;76681;59.304;18.294;2024-03-22T08:28:49;100188.81;;;3.88;78.88
76311;BME280;76681;59.304;18.294;2024-03-22T08:31:16;100191.41;;;3.90;78.92
76311;BME280;76681;59.304;18.294;2024-03-22T08:33:42;100189.66;;;3.92;78.85
76311;BME280;76681;59.304;18.294;2024-03-22T08:36:09;100186.22;;;3.93;78.78
76311;BME280;76681;59.304;18.294;2024-03-22T08:38:35;100182.75;;;3.94;78.80
76311;BME280;76681;59.304;18.294;2024-03-22T08:41:04;100179.28;;;3.96;78.60
76311;BME280;76681;59.304;18.294;2024-03-22T08:43:30;100179.28;;;3.98;78.71
76311;BME280;76681;59.304;18.294;2024-03-22T08:45:56;100174.13;;;3.98;79.07
76311;BME280;76681;59.304;18.294;2024-03-22T08:48:23;100157.69;;;3.99;78.76
76311;BME280;76681;59.304;18.294;2024-03-22T08:50:50;100155.09;;;4.02;79.03
76311;BME280;76681;59.304;18.294;2024-03-22T08:53:16;100149.03;;;4.03;78.75
76311;BME280;76681;59.304;18.294;2024-03-22T08:55:46;100135.22;;;4.06;79.01
76311;BME280;76681;59.304;18.294;2024-03-22T08:58:14;100136.97;;;4.07;79.00
76311;BME280;76681;59.304;18.294;2024-03-22T09:00:43;100129.16;;;4.08;78.76
76311;BME280;76681;59.304;18.294;2024-03-22T09:03:09;100122.25;;;4.09;78.71
76311;BME280;76681;59.304;18.294;2024-03-22T09:05:36;100113.59;;;4.11;78.82
76311;BME280;76681;59.304;18.294;2024-03-22T09:08:02;100116.19;;;4.13;78.97
76311;BME280;76681;59.304;18.294;2024-03-22T09:10:30;100115.31;;;4.14;79.16
76311;BME280;76681;59.304;18.294;2024-03-22T09:12:56;100104.09;;;4.15;79.00
76311;BME280;76681;59.304;18.294;2024-03-22T09:15:24;100103.22;;;4.17;79.22
76311;BME280;76681;59.304;18.294;2024-03-22T09:17:51;100104.06;;;4.19;79.18
76311;BME280;76681;59.304;18.294;2024-03-22T09:20:18;100094.56;;;4.22;79.40
76311;BME280;76681;59.304;18.294;2024-03-22T09:22:44;100084.19;;;4.23;79.23
76311;BME280;76681;59.304;18.294;2024-03-22T09:25:11;100075.53;;;4.26;79.19
76311;BME280;76681;59.304;18.294;2024-03-22T09:27:37;100073.78;;;4.28;79.18
76311;BME280;76681;59.304;18.294;2024-03-22T09:30:05;100067.72;;;4.30;79.51
76311;BME280;76681;59.304;18.294;2024-03-22T09:32:32;100070.28;;;4.32;79.36
76311;BME280;76681;59.304;18.294;2024-03-22T09:34:59;100063.38;;;4.34;79.63
76311;BME280;76681;59.304;18.294;2024-03-22T09:37:25;100058.19;;;4.34;79.57
76311;BME280;76681;59.304;18.294;2024-03-22T09:39:52;100061.63;;;4.39;79.91
76311;BME280;76681;59.304;18.294;2024-03-22T09:42:18;100052.13;;;4.41;79.84
76311;BME280;76681;59.304;18.294;2024-03-22T09:44:47;100050.34;;;4.43;79.87
76311;BME280;76681;59.304;18.294;2024-03-22T09:47:14;100053.78;;;4.45;79.87
76311;BME280;76681;59.304;18.294;2024-03-22T09:49:44;100052.91;;;4.48;79.43
76311;BME280;76681;59.304;18.294;2024-03-22T09:52:12;100049.44;;;4.50;79.82
76311;BME280;76681;59.304;18.294;2024-03-22T09:54:41;100052.88;;;4.52;79.58
76311;BME280;76681;59.304;18.294;2024-03-22T09:57:09;100056.28;;;4.54;79.50
76311;BME280;76681;59.304;18.294;2024-03-22T09:59:38;100047.63;;;4.57;79.56
76311;BME280;76681;59.304;18.294;2024-03-22T10:02:04;100049.34;;;4.59;79.56
76311;BME280;76681;59.304;18.294;2024-03-22T10:04:33;100038.09;;;4.60;79.38
76311;BME280;76681;59.304;18.294;2024-03-22T10:07:03;100032.91;;;4.63;79.37
76311;BME280;76681;59.304;18.294;2024-03-22T10:09:31;100047.56;;;4.64;79.27
76311;BME280;76681;59.304;18.294;2024-03-22T10:11:57;100028.53;;;4.66;79.40
76311;BME280;76681;59.304;18.294;2024-03-22T10:14:24;100028.50;;;4.69;79.14
76311;BME280;76681;59.304;18.294;2024-03-22T10:16:51;100025.06;;;4.70;79.32
76311;BME280;76681;59.304;18.294;2024-03-22T10:19:20;100019.00;;;4.71;79.24
76311;BME280;76681;59.304;18.294;2024-03-22T10:21:47;100017.25;;;4.73;79.07
76311;BME280;76681;59.304;18.294;2024-03-22T10:24:15;100009.47;;;4.73;78.88
76311;BME280;76681;59.304;18.294;2024-03-22T10:26:41;100005.09;;;4.76;79.19
76311;BME280;76681;59.304;18.294;2024-03-22T10:29:08;100008.56;;;4.77;79.35
76311;BME280;76681;59.304;18.294;2024-03-22T10:31:35;100013.72;;;4.78;79.07
76311;BME280;76681;59.304;18.294;2024-03-22T10:34:02;100000.75;;;4.80;79.29
76311;BME280;76681;59.304;18.294;2024-03-22T10:36:29;99997.28;;;4.81;79.05
76311;BME280;76681;59.304;18.294;2024-03-22T10:38:58;100000.69;;;4.83;79.08
76311;BME280;76681;59.304;18.294;2024-03-22T10:41:26;100000.69;;;4.83;79.27
76311;BME280;76681;59.304;18.294;2024-03-22T10:43:53;99986.03;;;4.83;78.99
76311;BME280;76681;59.304;18.294;2024-03-22T10:46:20;99979.06;;;4.85;79.18
76311;BME280;76681;59.304;18.294;2024-03-22T10:48:47;99978.22;;;4.86;79.16
76311;BME280;76681;59.304;18.294;2024-03-22T10:51:15;99969.56;;;4.89;79.24
76311;BME280;76681;59.304;18.294;2024-03-22T10:53:43;99961.75;;;4.91;79.20
76311;BME280;76681;59.304;18.294;2024-03-22T10:56:10;99965.19;;;4.93;79.21
76311;BME280;76681;59.304;18.294;2024-03-22T10:58:41;99961.72;;;4.94;79.06
76311;BME280;76681;59.304;18.294;2024-03-22T11:01:21;99965.19;;;4.96;78.97
76311;BME280;76681;59.304;18.294;2024-03-22T11:03:49;99953.06;;;4.95;79.38
76311;BME280;76681;59.304;18.294;2024-03-22T11:06:18;99953.06;;;4.98;79.22
76311;BME280;76681;59.304;18.294;2024-03-22T11:08:49;99933.19;;;4.97;78.90
76311;BME280;76681;59.304;18.294;2024-03-22T11:11:17;99946.94;;;5.00;78.95
76311;BME280;76681;59.304;18.294;2024-03-22T11:13:46;99944.34;;;5.02;79.17
76311;BME280;76681;59.304;18.294;2024-03-22T11:16:14;99932.25;;;5.02;79.24
76311;BME280;76681;59.304;18.294;2024-03-22T11:18:41;99935.69;;;5.03;79.22
76311;BME280;76681;59.304;18.294;2024-03-22T11:21:07;99925.34;;;5.01;79.22
76311;BME280;76681;59.304;18.294;2024-03-22T11:23:34;99929.59;;;5.05;79.34
76311;BME280;76681;59.304;18.294;2024-03-22T11:26:05;99927.84;;;5.07;79.42
76311;BME280;76681;59.304;18.294;2024-03-22T11:28:33;99923.53;;;5.08;78.97
76311;BME280;76681;59.304;18.294;2024-03-22T11:31:00;99917.47;;;5.09;79.13
76311;BME280;76681;59.304;18.294;2024-03-22T11:33:27;99917.44;;;5.11;79.08
76311;BME280;76681;59.304;18.294;2024-03-22T11:35:55;99914.84;;;5.12;79.33
76311;BME280;76681;59.304;18.294;2024-03-22T11:38:25;99912.22;;;5.14;78.92
76311;BME280;76681;59.304;18.294;2024-03-22T11:40:53;99906.13;;;5.15;79.38
76311;BME280;76681;59.304;18.294;2024-03-22T11:43:21;99896.59;;;5.17;79.29
76311;BME280;76681;59.304;18.294;2024-03-22T11:45:48;99899.19;;;5.18;79.41
76311;BME280;76681;59.304;18.294;2024-03-22T11:48:16;99885.34;;;5.19;79.33
76311;BME280;76681;59.304;18.294;2024-03-22T11:50:43;99878.41;;;5.21;79.21
76311;BME280;76681;59.304;18.294;2024-03-22T11:53:09;99880.94;;;5.23;79.55
76311;BME280;76681;59.304;18.294;2024-03-22T11:55:35;99870.56;;;5.23;79.25
76311;BME280;76681;59.304;18.294;2024-03-22T11:58:03;99867.94;;;5.26;79.66
76311;BME280;76681;59.304;18.294;2024-03-22T12:00:29;99866.22;;;5.26;79.20
76311;BME280;76681;59.304;18.294;2024-03-22T12:02:56;99854.13;;;5.25;79.42
76311;BME280;76681;59.304;18.294;2024-03-22T12:05:23;99865.28;;;5.30;79.53
76311;BME280;76681;59.304;18.294;2024-03-22T12:07:51;99861.78;;;5.33;79.28
76311;BME280;76681;59.304;18.294;2024-03-22T12:10:17;99853.97;;;5.35;79.35
76311;BME280;76681;59.304;18.294;2024-03-22T12:12:44;99852.22;;;5.37;79.47
76311;BME280;76681;59.304;18.294;2024-03-22T12:15:10;99851.34;;;5.38;79.32
76311;BME280;76681;59.304;18.294;2024-03-22T12:17:37;99848.69;;;5.41;79.19
76311;BME280;76681;59.304;18.294;2024-03-22T12:20:06;99848.66;;;5.42;79.56
76311;BME280;76681;59.304;18.294;2024-03-22T12:22:35;99844.31;;;5.44;79.68
76311;BME280;76681;59.304;18.294;2024-03-22T12:25:01;99845.16;;;5.46;79.16
76311;BME280;76681;59.304;18.294;2024-03-22T12:27:29;99835.59;;;5.48;79.57
76311;BME280;76681;59.304;18.294;2024-03-22T12:29:55;99828.69;;;5.49;79.34
76311;BME280;76681;59.304;18.294;2024-03-22T12:32:22;99824.31;;;5.51;79.46
76311;BME280;76681;59.304;18.294;2024-03-22T12:34:48;99818.25;;;5.52;78.95
76311;BME280;76681;59.304;18.294;2024-03-22T12:37:15;99819.94;;;5.55;79.49
76311;BME280;76681;59.304;18.294;2024-03-22T12:39:43;99815.59;;;5.55;79.59
76311;BME280;76681;59.304;18.294;2024-03-22T12:42:09;99812.97;;;5.57;79.24
76311;BME280;76681;59.304;18.294;2024-03-22T12:44:36;99805.16;;;5.58;79.37
76311;BME280;76681;59.304;18.294;2024-03-22T12:47:03;99802.53;;;5.60;79.16
76311;BME280;76681;59.304;18.294;2024-03-22T12:49:29;99799.06;;;5.61;79.02
76311;BME280;76681;59.304;18.294;2024-03-22T12:51:56;99796.41;;;5.64;79.28